createdAt,value
2023-03-12T00:01:41.255Z,98766.75
2023-03-12T00:04:07.830Z,98761.69
2023-03-12T00:06:34.392Z,98755.88
2023-03-12T00:09:02.024Z,98753.13
2023-03-12T00:11:29.043Z,98763.66
2023-03-12T00:13:56.984Z,98757.84
2023-03-12T00:16:24.084Z,98747.81
2023-03-12T00:18:52.104Z,98752.00
2023-03-12T00:21:20.495Z,98756.72
2023-03-12T00:23:50.680Z,98766.81
2023-03-12T00:26:18.531Z,98762.56
2023-03-12T00:28:45.115Z,98769.16
2023-03-12T00:31:20.739Z,98782.00
2023-03-12T00:33:50.047Z,98772.31
2023-03-12T00:36:18.282Z,98775.03
2023-03-12T00:38:45.535Z,98777.78
2023-03-12T00:41:12.197Z,98773.94
2023-03-12T00:43:38.687Z,98760.34
2023-03-12T00:46:05.233Z,98756.50
2023-03-12T00:48:31.809Z,98775.91
2023-03-12T00:50:58.367Z,98771.63
2023-03-12T00:53:24.979Z,98762.69
2023-03-12T00:55:51.504Z,98759.97
2023-03-12T00:58:17.947Z,98773.97
2023-03-12T01:00:44.471Z,98760.00
2023-03-12T01:03:11.061Z,98749.13
2023-03-12T01:05:40.658Z,98764.69
2023-03-12T01:08:08.582Z,98758.47
2023-03-12T01:10:36.460Z,98758.47
2023-03-12T01:13:03.007Z,98760.81
2023-03-12T01:15:29.769Z,98756.13
2023-03-12T01:17:56.361Z,98734.44
2023-03-12T01:20:23.298Z,98731.66
2023-03-12T01:22:50.306Z,98756.13
2023-03-12T01:25:16.797Z,98753.41
2023-03-12T01:27:43.309Z,98758.47
2023-03-12T01:30:10.574Z,98743.00
2023-03-12T01:32:37.427Z,98764.72
2023-03-12T01:35:04.272Z,98765.13
2023-03-12T01:37:32.389Z,98762.81
2023-03-12T01:39:58.958Z,98740.69
2023-03-12T01:42:25.482Z,98745.72
2023-03-12T01:44:54.688Z,98760.09
2023-03-12T01:47:21.355Z,98753.06
2023-03-12T01:49:49.117Z,98751.50
2023-03-12T01:52:19.842Z,98756.19
2023-03-12T01:54:57.995Z,98756.56
2023-03-12T01:57:29.651Z,98750.72
2023-03-12T02:00:07.367Z,98751.13
2023-03-12T02:02:34.899Z,98737.16
2023-03-12T02:05:20.211Z,98715.09
2023-03-12T02:07:46.904Z,98749.53
2023-03-12T02:10:13.481Z,98729.38
2023-03-12T02:12:39.933Z,98754.63
2023-03-12T02:15:07.246Z,98746.91
2023-03-12T02:17:33.995Z,98743.72
2023-03-12T02:20:16.310Z,98755.75
2023-03-12T02:22:46.781Z,98727.44
2023-03-12T02:25:31.746Z,98748.00
2023-03-12T02:28:00.275Z,98746.09
2023-03-12T02:30:28.153Z,98743.78
2023-03-12T02:32:55.107Z,98746.13
2023-03-12T02:35:21.773Z,98743.81
2023-03-12T02:37:50.557Z,98744.97
2023-03-12T02:40:34.044Z,98710.47
2023-03-12T02:43:02.112Z,98746.13
2023-03-12T02:45:29.850Z,98741.50
2023-03-12T02:47:56.347Z,98742.63
2023-03-12T02:50:23.111Z,98757.03
2023-03-12T02:52:49.830Z,98746.91
2023-03-12T02:55:16.536Z,98742.63
2023-03-12T02:57:43.793Z,98751.53
2023-03-12T03:00:12.546Z,98754.25
2023-03-12T03:02:39.820Z,98748.00
2023-03-12T03:05:06.904Z,98729.00
2023-03-12T03:07:33.385Z,98749.53
2023-03-12T03:10:04.384Z,98748.69
2023-03-12T03:12:31.983Z,98740.22
2023-03-12T03:14:58.738Z,98736.72
2023-03-12T03:17:25.585Z,98759.22
2023-03-12T03:19:52.205Z,98753.00
2023-03-12T03:22:19.844Z,98740.53
2023-03-12T03:24:46.251Z,98739.38
2023-03-12T03:27:13.393Z,98740.50
2023-03-12T03:29:39.937Z,98723.44
2023-03-12T03:32:06.815Z,98746.31
2023-03-12T03:34:33.594Z,98721.84
2023-03-12T03:37:00.030Z,98742.03
2023-03-12T03:39:28.974Z,98740.06
2023-03-12T03:41:55.445Z,98740.47
2023-03-12T03:44:23.078Z,98737.38
2023-03-12T03:46:49.894Z,98759.09
2023-03-12T03:49:16.807Z,98756.72
2023-03-12T03:51:43.390Z,98721.00
2023-03-12T03:54:10.821Z,98745.06
2023-03-12T03:56:37.314Z,98764.44
2023-03-12T03:59:04.131Z,98759.75
2023-03-12T04:01:31.458Z,98758.59
2023-03-12T04:03:59.126Z,98760.09
2023-03-12T04:06:26.206Z,98752.72
2023-03-12T04:08:52.720Z,98751.91
2023-03-12T04:11:21.241Z,98755.03
2023-03-12T04:13:47.981Z,98755.44
2023-03-12T04:16:15.211Z,98748.75
2023-03-12T04:18:41.778Z,98727.81
2023-03-12T04:21:09.766Z,98747.91
2023-03-12T04:23:37.126Z,98749.41
2023-03-12T04:26:04.678Z,98742.00
2023-03-12T04:28:31.273Z,98742.38
2023-03-12T04:30:59.796Z,98737.69
2023-03-12T04:33:27.621Z,98726.44
2023-03-12T04:35:54.319Z,98736.78
2023-03-12T04:38:21.955Z,98747.25
2023-03-12T04:40:57.750Z,98739.09
2023-03-12T04:43:24.372Z,98726.31
2023-03-12T04:45:50.918Z,98745.97
2023-03-12T04:48:17.491Z,98747.50
2023-03-12T04:50:44.572Z,98743.53
2023-03-12T04:53:11.349Z,98750.53
2023-03-12T04:55:37.810Z,98740.41
2023-03-12T04:58:04.322Z,98745.47
2023-03-12T05:00:30.886Z,98745.88
2023-03-12T05:02:57.364Z,98740.06
2023-03-12T05:05:23.947Z,98738.91
2023-03-12T05:07:50.494Z,98730.31
2023-03-12T05:10:16.988Z,98731.88
2023-03-12T05:12:43.448Z,98729.19
2023-03-12T05:15:10.282Z,98741.63
2023-03-12T05:17:36.857Z,98743.53
2023-03-12T05:20:07.297Z,98734.16
2023-03-12T05:22:33.837Z,98739.53
2023-03-12T05:25:00.399Z,98736.47
2023-03-12T05:27:26.926Z,98744.19
2023-03-12T05:29:53.746Z,98738.69
2023-03-12T05:32:20.448Z,98727.81
2023-03-12T05:34:46.950Z,98719.31
2023-03-12T05:37:13.484Z,98733.19
2023-03-12T05:39:46.683Z,98739.72
2023-03-12T05:42:16.480Z,98747.53
2023-03-12T05:44:43.012Z,98739.66
2023-03-12T05:47:09.588Z,98709.00
2023-03-12T05:49:36.394Z,98736.84
2023-03-12T05:52:03.138Z,98743.84
2023-03-12T05:54:41.010Z,98742.25
2023-03-12T05:57:18.739Z,98719.84
2023-03-12T05:59:51.489Z,98737.47
2023-03-12T06:02:29.405Z,98734.03
2023-03-12T06:05:08.906Z,98739.44
2023-03-12T06:07:42.039Z,98724.72
2023-03-12T06:10:21.398Z,98735.50
2023-03-12T06:12:55.248Z,98737.41
2023-03-12T06:15:24.718Z,98723.72
2023-03-12T06:17:51.251Z,98705.53
2023-03-12T06:20:17.846Z,98696.50
2023-03-12T06:22:44.361Z,98729.00
2023-03-12T06:25:10.925Z,98706.69
2023-03-12T06:27:37.441Z,98721.41
2023-03-12T06:30:05.103Z,98729.88
2023-03-12T06:32:31.754Z,98718.81
2023-03-12T06:35:00.580Z,98718.03
2023-03-12T06:37:27.838Z,98726.44
2023-03-12T06:39:54.355Z,98730.66
2023-03-12T06:42:22.506Z,98715.72
2023-03-12T06:44:50.085Z,98714.84
2023-03-12T06:47:17.742Z,98713.56
2023-03-12T06:49:44.310Z,98711.22
2023-03-12T06:52:11.117Z,98705.53
2023-03-12T06:54:37.605Z,98720.09
2023-03-12T06:57:04.220Z,98716.81
2023-03-12T06:59:30.824Z,98717.91
2023-03-12T07:01:57.335Z,98715.84
2023-03-12T07:04:23.940Z,98712.63
2023-03-12T07:06:51.295Z,98714.19
2023-03-12T07:09:18.637Z,98693.28
2023-03-12T07:11:45.416Z,98707.88
2023-03-12T07:14:11.954Z,98692.50
2023-03-12T07:16:38.386Z,98696.63
2023-03-12T07:19:04.981Z,98703.78
2023-03-12T07:21:31.674Z,98703.03
2023-03-12T07:23:58.299Z,98689.50
2023-03-12T07:26:25.032Z,98696.78
2023-03-12T07:28:51.595Z,98711.72
2023-03-12T07:31:18.240Z,98707.69
2023-03-12T07:33:47.636Z,98707.50
2023-03-12T07:36:16.876Z,98715.56
2023-03-12T07:38:44.116Z,98706.66
2023-03-12T07:41:24.150Z,98713.16
2023-03-12T07:44:03.517Z,98719.00
2023-03-12T07:46:35.250Z,98695.53
2023-03-12T07:49:02.795Z,98695.78
2023-03-12T07:51:30.592Z,98701.47
2023-03-12T07:53:57.235Z,98696.97
2023-03-12T07:56:23.815Z,98682.63
2023-03-12T07:58:50.659Z,98673.66
2023-03-12T08:01:17.369Z,98681.47
2023-03-12T08:03:45.616Z,98695.59
2023-03-12T08:06:12.256Z,98692.41
2023-03-12T08:08:41.719Z,98686.13
2023-03-12T08:11:09.401Z,98683.41
2023-03-12T08:13:35.994Z,98683.75
2023-03-12T08:16:02.518Z,98677.81
2023-03-12T08:18:29.049Z,98665.47
2023-03-12T08:20:55.543Z,98669.63
2023-03-12T08:23:22.381Z,98667.22
2023-03-12T08:25:54.456Z,98666.38
2023-03-12T08:28:30.805Z,98666.41
2023-03-12T08:31:07.363Z,98669.34
2023-03-12T08:33:44.040Z,98663.19
2023-03-12T08:36:22.700Z,98639.50
2023-03-12T08:38:50.326Z,98628.34
2023-03-12T08:41:17.369Z,98643.97
2023-03-12T08:43:49.968Z,98637.41
2023-03-12T08:46:29.554Z,98659.06
2023-03-12T08:49:00.361Z,98655.91
2023-03-12T08:51:28.250Z,98651.09
2023-03-12T08:53:56.150Z,98642.97
2023-03-12T08:56:22.756Z,98648.41
2023-03-12T08:58:49.281Z,98654.13
2023-03-12T09:01:15.814Z,98642.41
2023-03-12T09:03:42.377Z,98611.50
2023-03-12T09:06:13.447Z,98614.97
2023-03-12T09:08:40.757Z,98599.38
2023-03-12T09:11:09.105Z,98587.97
2023-03-12T09:13:54.604Z,98606.81
2023-03-12T09:16:22.313Z,98596.06
2023-03-12T09:18:49.237Z,98607.44
2023-03-12T09:21:15.791Z,98607.88
2023-03-12T09:23:42.246Z,98610.75
2023-03-12T09:26:12.451Z,98600.78
2023-03-12T09:28:39.017Z,98586.47
2023-03-12T09:31:06.063Z,98593.53
2023-03-12T09:33:35.008Z,98601.38
2023-03-12T09:36:02.270Z,98597.59
2023-03-12T09:38:29.108Z,98573.66
2023-03-12T09:40:56.564Z,98589.81
2023-03-12T09:43:32.337Z,98587.63
2023-03-12T09:46:00.003Z,98604.84
2023-03-12T09:48:34.225Z,98595.47
2023-03-12T09:51:03.891Z,98599.31
2023-03-12T09:53:34.946Z,98598.34
2023-03-12T09:56:09.172Z,98602.34
2023-03-12T09:58:38.241Z,98602.22
2023-03-12T10:01:07.867Z,98594.06
2023-03-12T10:03:53.068Z,98595.59
2023-03-12T10:06:25.952Z,98587.22
2023-03-12T10:09:17.256Z,98591.41
2023-03-12T10:11:45.703Z,98581.25
2023-03-12T10:14:24.268Z,98575.59
2023-03-12T10:16:59.933Z,98583.00
2023-03-12T10:19:48.548Z,98584.53
2023-03-12T10:22:26.285Z,98573.34
2023-03-12T10:25:14.281Z,98584.41
2023-03-12T10:27:41.322Z,98575.38
2023-03-12T10:30:20.424Z,98568.94
2023-03-12T10:32:50.971Z,98563.72
2023-03-12T10:35:23.316Z,98556.66
2023-03-12T10:37:59.828Z,98547.75
2023-03-12T10:40:34.053Z,98540.22
2023-03-12T10:43:01.396Z,98555.75
2023-03-12T10:45:34.605Z,98554.50
2023-03-12T10:48:04.037Z,98551.13
2023-03-12T10:50:32.808Z,98557.00
2023-03-12T10:53:22.872Z,98560.47
2023-03-12T10:56:07.992Z,98560.47
2023-03-12T10:58:38.863Z,98552.94
2023-03-12T11:01:15.155Z,98553.09
2023-03-12T11:03:42.748Z,98546.22
2023-03-12T11:06:15.827Z,98544.72
2023-03-12T11:08:43.172Z,98519.53
2023-03-12T11:11:09.833Z,98518.47
2023-03-12T11:13:39.115Z,98531.81
2023-03-12T11:16:17.761Z,98533.19
2023-03-12T11:19:01.463Z,98540.56
2023-03-12T11:21:29.496Z,98543.47
2023-03-12T11:23:59.116Z,98543.16
2023-03-12T11:26:30.368Z,98526.44
2023-03-12T11:29:02.735Z,98527.22
2023-03-12T11:31:32.331Z,98539.75
2023-03-12T11:34:06.629Z,98519.19
2023-03-12T11:36:51.523Z,98517.38
2023-03-12T11:39:28.040Z,98511.84
2023-03-12T11:42:30.343Z,98516.59
2023-03-12T11:45:10.254Z,98512.13
2023-03-12T11:47:49.134Z,98500.97
2023-03-12T11:50:27.789Z,98474.44
2023-03-12T11:53:25.138Z,98502.78
2023-03-12T11:56:00.837Z,98496.34
2023-03-12T11:58:48.706Z,98490.78
2023-03-12T12:01:35.392Z,98491.84
2023-03-12T12:04:10.740Z,98487.88
2023-03-12T12:06:48.160Z,98487.88
2023-03-12T12:09:39.609Z,98485.56
2023-03-12T12:12:06.019Z,98478.06
2023-03-12T12:15:20.722Z,98474.81
2023-03-12T12:17:57.423Z,98461.94
2023-03-12T12:20:48.417Z,98475.59
2023-03-12T12:23:18.338Z,98459.38
2023-03-12T12:25:57.676Z,98455.69
2023-03-12T12:28:24.048Z,98452.81
2023-03-12T12:31:16.055Z,98446.84
2023-03-12T12:34:04.128Z,98445.31
2023-03-12T12:36:33.928Z,98446.41
2023-03-12T12:39:06.094Z,98441.31
2023-03-12T12:41:35.984Z,98445.00
2023-03-12T12:44:06.521Z,98415.28
2023-03-12T12:46:36.078Z,98431.19
2023-03-12T12:49:11.648Z,98436.44
2023-03-12T12:51:42.061Z,98423.56
2023-03-12T12:54:27.961Z,98424.16
2023-03-12T12:57:02.363Z,98411.88
2023-03-12T12:59:42.791Z,98411.13
2023-03-12T13:02:17.645Z,98398.09
2023-03-12T13:04:44.567Z,98416.31
2023-03-12T13:07:13.992Z,98407.91
2023-03-12T13:09:47.138Z,98416.47
2023-03-12T13:12:32.711Z,98426.63
2023-03-12T13:15:00.578Z,98421.69
2023-03-12T13:17:36.407Z,98410.97
2023-03-12T13:20:20.654Z,98406.06
2023-03-12T13:23:03.901Z,98408.69
2023-03-12T13:26:25.072Z,98423.22
2023-03-12T13:29:05.963Z,98412.50
2023-03-12T13:31:37.996Z,98410.06
2023-03-12T13:34:19.877Z,98412.97
2023-03-12T13:36:53.360Z,98407.91
2023-03-12T13:39:28.937Z,98394.44
2023-03-12T13:41:56.318Z,98391.97
2023-03-12T13:44:22.751Z,98396.28
2023-03-12T13:47:18.266Z,98401.78
2023-03-12T13:49:58.029Z,98398.41
2023-03-12T13:52:31.736Z,98388.31
2023-03-12T13:55:06.875Z,98412.69
2023-03-12T13:57:40.189Z,98396.13
2023-03-12T14:00:16.471Z,98401.47
2023-03-12T14:03:11.636Z,98394.72
2023-03-12T14:05:58.887Z,98397.50
2023-03-12T14:08:50.051Z,98411.13
2023-03-12T14:11:24.111Z,98409.59
2023-03-12T14:14:15.481Z,98399.78
2023-03-12T14:16:49.272Z,98416.19
2023-03-12T14:19:28.073Z,98408.22
2023-03-12T14:21:56.616Z,98405.00
2023-03-12T14:24:36.528Z,98415.88
2023-03-12T14:27:05.381Z,98419.56
2023-03-12T14:29:37.339Z,98388.13
2023-03-12T14:32:06.452Z,98395.94
2023-03-12T14:34:42.139Z,98393.47
2023-03-12T14:37:43.103Z,98389.34
2023-03-12T14:40:36.861Z,98391.94
2023-03-12T14:43:03.466Z,98387.03
2023-03-12T14:45:30.070Z,98368.94
2023-03-12T14:47:58.435Z,98375.50
2023-03-12T14:50:29.156Z,98377.63
2023-03-12T14:52:57.077Z,98383.75
2023-03-12T14:55:25.689Z,98374.41
2023-03-12T14:58:20.567Z,98390.97
2023-03-12T15:00:57.620Z,98387.63
2023-03-12T15:03:24.667Z,98387.78
2023-03-12T15:05:51.731Z,98384.88
2023-03-12T15:08:18.999Z,98381.53
2023-03-12T15:10:55.333Z,98380.13
2023-03-12T15:13:23.118Z,98368.63
2023-03-12T15:15:51.637Z,98369.28
2023-03-12T15:18:36.577Z,98361.91
2023-03-12T15:21:03.327Z,98371.56
2023-03-12T15:23:32.743Z,98368.03
2023-03-12T15:26:15.959Z,98366.19
2023-03-12T15:28:43.071Z,98359.75
2023-03-12T15:31:17.085Z,98381.53
2023-03-12T15:33:44.576Z,98375.06
2023-03-12T15:36:17.532Z,98364.31
2023-03-12T15:38:49.081Z,98346.84
2023-03-12T15:41:20.140Z,98374.91
2023-03-12T15:43:52.707Z,98371.50
2023-03-12T15:46:19.683Z,98376.25
2023-03-12T15:48:50.294Z,98379.63
2023-03-12T15:51:30.237Z,98381.47
2023-03-12T15:54:18.747Z,98392.81
2023-03-12T15:56:45.168Z,98386.53
2023-03-12T15:59:17.398Z,98397.09
2023-03-12T16:01:52.781Z,98403.25
2023-03-12T16:04:19.849Z,98402.16
2023-03-12T16:06:48.936Z,98400.75
2023-03-12T16:09:21.346Z,98379.28
2023-03-12T16:11:48.296Z,98389.91
2023-03-12T16:14:21.061Z,98393.09
2023-03-12T16:16:47.804Z,98389.44
2023-03-12T16:19:16.263Z,98398.47
2023-03-12T16:21:43.324Z,98397.72
2023-03-12T16:24:10.192Z,98391.56
2023-03-12T16:26:46.570Z,98381.00
2023-03-12T16:29:15.467Z,98389.91
2023-03-12T16:31:42.407Z,98375.63
2023-03-12T16:34:11.179Z,98403.50
2023-03-12T16:36:37.730Z,98389.28
2023-03-12T16:39:04.334Z,98399.22
2023-03-12T16:41:32.251Z,98388.66
2023-03-12T16:44:00.435Z,98399.88
2023-03-12T16:46:31.413Z,98381.16
2023-03-12T16:48:58.581Z,98379.91
2023-03-12T16:51:28.268Z,98396.31
2023-03-12T16:54:08.488Z,98421.34
2023-03-12T16:56:38.525Z,98413.03
2023-03-12T16:59:14.312Z,98401.84
2023-03-12T17:01:45.298Z,98395.28
2023-03-12T17:04:11.862Z,98403.25
2023-03-12T17:06:40.398Z,98402.00
2023-03-12T17:09:08.418Z,98408.28
2023-03-12T17:11:36.499Z,98402.31
2023-03-12T17:14:06.939Z,98408.88
2023-03-12T17:16:33.375Z,98400.47
2023-03-12T17:18:59.910Z,98394.34
2023-03-12T17:21:26.547Z,98389.59
2023-03-12T17:23:52.997Z,98413.34
2023-03-12T17:26:19.901Z,98395.91
2023-03-12T17:28:46.343Z,98394.66
2023-03-12T17:31:12.893Z,98406.06
2023-03-12T17:33:39.572Z,98434.84
2023-03-12T17:36:08.420Z,98435.00
2023-03-12T17:38:35.138Z,98424.09
2023-03-12T17:41:02.028Z,98421.50
2023-03-12T17:43:28.563Z,98423.47
2023-03-12T17:45:55.051Z,98413.25
2023-03-12T17:48:23.321Z,98435.16
2023-03-12T17:50:50.272Z,98444.66
2023-03-12T17:53:16.830Z,98438.38
2023-03-12T17:55:43.313Z,98447.13
2023-03-12T17:58:09.736Z,98434.09
2023-03-12T18:00:36.332Z,98414.66
2023-03-12T18:03:03.499Z,98428.72
2023-03-12T18:05:30.122Z,98428.25
2023-03-12T18:07:56.610Z,98415.09
2023-03-12T18:10:23.109Z,98422.00
2023-03-12T18:12:49.529Z,98421.38
2023-03-12T18:15:16.914Z,98415.53
2023-03-12T18:17:49.822Z,98415.59
2023-03-12T18:20:25.871Z,98422.78
2023-03-12T18:22:59.039Z,98430.28
2023-03-12T18:25:25.503Z,98413.09
2023-03-12T18:27:52.698Z,98414.66
2023-03-12T18:30:21.070Z,98417.09
2023-03-12T18:32:47.909Z,98409.88
2023-03-12T18:35:14.401Z,98427.84
2023-03-12T18:37:40.872Z,98423.06
2023-03-12T18:40:08.196Z,98433.19
2023-03-12T18:42:34.768Z,98425.97
2023-03-12T18:45:01.289Z,98414.97
2023-03-12T18:47:27.717Z,98401.75
2023-03-12T18:49:55.806Z,98411.09
2023-03-12T18:52:22.610Z,98415.38
2023-03-12T18:54:49.072Z,98442.38
2023-03-12T18:57:15.492Z,98440.97
2023-03-12T18:59:45.204Z,98420.72
2023-03-12T19:02:12.005Z,98419.19
2023-03-12T19:04:39.134Z,98445.25
2023-03-12T19:07:06.544Z,98440.66
2023-03-12T19:09:33.495Z,98450.56
2023-03-12T19:12:00.097Z,98445.47
2023-03-12T19:14:28.425Z,98455.75
2023-03-12T19:16:54.963Z,98443.75
2023-03-12T19:19:21.907Z,98437.44
2023-03-12T19:21:48.901Z,98454.72
2023-03-12T19:24:15.519Z,98446.56
2023-03-12T19:26:42.172Z,98448.69
2023-03-12T19:29:08.703Z,98420.03
2023-03-12T19:31:35.302Z,98407.88
2023-03-12T19:34:01.875Z,98445.38
2023-03-12T19:36:28.305Z,98436.34
2023-03-12T19:38:54.724Z,98434.16
2023-03-12T19:41:21.660Z,98444.41
2023-03-12T19:43:48.589Z,98447.28
2023-03-12T19:46:15.226Z,98437.75
2023-03-12T19:48:41.932Z,98428.50
2023-03-12T19:51:10.069Z,98446.00
2023-03-12T19:53:37.291Z,98443.97
2023-03-12T19:56:04.260Z,98446.00
2023-03-12T19:58:30.782Z,98456.41
2023-03-12T20:01:00.956Z,98456.34
2023-03-12T20:03:28.530Z,98449.75
2023-03-12T20:05:55.937Z,98453.09
2023-03-12T20:08:22.780Z,98457.50
2023-03-12T20:10:49.645Z,98462.47
2023-03-12T20:13:17.719Z,98459.41
2023-03-12T20:15:46.833Z,98476.13
2023-03-12T20:18:14.662Z,98483.13
2023-03-12T20:20:42.325Z,98472.53
2023-03-12T20:23:09.107Z,98468.22
2023-03-12T20:25:39.171Z,98482.00
2023-03-12T20:28:05.585Z,98474.91
2023-03-12T20:30:32.357Z,98484.31
2023-03-12T20:32:58.817Z,98476.78
2023-03-12T20:35:25.308Z,98474.28
2023-03-12T20:37:51.742Z,98472.28
2023-03-12T20:40:18.313Z,98446.06
2023-03-12T20:42:44.864Z,98458.91
2023-03-12T20:45:11.550Z,98461.38
2023-03-12T20:47:40.161Z,98461.38
2023-03-12T20:50:07.890Z,98439.31
2023-03-12T20:52:34.300Z,98461.97
2023-03-12T20:55:00.775Z,98442.41
2023-03-12T20:57:27.352Z,98441.94
2023-03-12T20:59:53.774Z,98440.97
2023-03-12T21:02:20.244Z,98429.41
2023-03-12T21:04:46.700Z,98430.47
2023-03-12T21:07:13.150Z,98426.47
2023-03-12T21:09:39.671Z,98418.16
2023-03-12T21:12:06.218Z,98419.38
2023-03-12T21:14:32.737Z,98412.03
2023-03-12T21:16:59.488Z,98401.44
2023-03-12T21:19:29.538Z,98413.75
2023-03-12T21:21:56.014Z,98419.97
2023-03-12T21:24:22.420Z,98424.53
2023-03-12T21:26:48.831Z,98422.06
2023-03-12T21:29:15.301Z,98406.00
2023-03-12T21:31:41.746Z,98420.72
2023-03-12T21:34:09.520Z,98426.53
2023-03-12T21:36:36.306Z,98423.03
2023-03-12T21:39:02.818Z,98435.63
2023-03-12T21:41:29.269Z,98425.50
2023-03-12T21:43:55.787Z,98442.59
2023-03-12T21:46:26.724Z,98442.13
2023-03-12T21:48:53.434Z,98442.41
2023-03-12T21:51:20.192Z,98431.81
2023-03-12T21:53:46.702Z,98429.91
2023-03-12T21:56:13.183Z,98437.94
2023-03-12T21:58:39.681Z,98431.47
2023-03-12T22:01:08.782Z,98423.41
2023-03-12T22:03:35.929Z,98432.78
2023-03-12T22:06:02.930Z,98420.75
2023-03-12T22:08:29.527Z,98412.34
2023-03-12T22:10:55.943Z,98405.94
2023-03-12T22:13:22.529Z,98409.00
2023-03-12T22:15:59.817Z,98406.22
2023-03-12T22:18:27.204Z,98402.03
2023-03-12T22:20:57.444Z,98392.28
2023-03-12T22:23:24.826Z,98392.38
2023-03-12T22:25:51.272Z,98401.06
2023-03-12T22:28:18.361Z,98406.41
2023-03-12T22:30:44.947Z,98396.28
2023-03-12T22:33:11.586Z,98387.50
2023-03-12T22:35:48.104Z,98395.72
2023-03-12T22:38:14.957Z,98395.81
2023-03-12T22:40:41.888Z,98395.81
2023-03-12T22:43:08.488Z,98382.81
2023-03-12T22:45:35.056Z,98385.19
2023-03-12T22:48:01.690Z,98385.97
2023-03-12T22:50:28.422Z,98389.22
2023-03-12T22:52:54.818Z,98385.97
2023-03-12T22:55:21.246Z,98386.75
2023-03-12T22:57:47.658Z,98374.69
2023-03-12T23:00:16.872Z,98376.22
2023-03-12T23:02:43.410Z,98356.34
2023-03-12T23:05:10.501Z,98358.66
2023-03-12T23:07:37.056Z,98363.63
2023-03-12T23:10:04.417Z,98356.81
2023-03-12T23:12:30.928Z,98361.59
2023-03-12T23:14:57.358Z,98344.31
2023-03-12T23:17:23.753Z,98359.59
2023-03-12T23:19:50.169Z,98363.91
2023-03-12T23:22:16.562Z,98359.88
2023-03-12T23:24:43.018Z,98353.13
2023-03-12T23:27:09.566Z,98342.97
2023-03-12T23:29:36.051Z,98345.75
2023-03-12T23:32:02.581Z,98329.78
2023-03-12T23:34:29.072Z,98342.03
2023-03-12T23:36:55.589Z,98340.97
2023-03-12T23:39:22.048Z,98301.91
2023-03-12T23:41:48.469Z,98321.41
2023-03-12T23:44:14.919Z,98299.03
2023-03-12T23:46:44.971Z,98318.31
2023-03-12T23:49:12.498Z,98310.97
2023-03-12T23:51:40.796Z,98305.13
2023-03-12T23:54:07.373Z,98303.72
2023-03-12T23:56:35.883Z,98300.84
2023-03-12T23:59:03.518Z,98310.53
